sensor_id;sensor_type;location;lat;lon;timestamp;pressure;altitude;pressure_sealevel;temperature;humidity
39075;BME280;24826;52.070;20.970;2023-05-11T00:01:43;62100.63;;;-147.04;37.85
39075;BME280;24826;52.070;20.970;2023-05-11T00:04:28;62102.63;;;-147.04;37.93
39075;BME280;24826;52.070;20.970;2023-05-11T00:07:13;62112.56;;;-147.04;37.78
39075;BME280;24826;52.070;20.970;2023-05-11T00:09:57;62052.91;;;-147.04;37.85
39075;BME280;24826;52.070;20.970;2023-05-11T00:12:41;62060.84;;;-147.04;37.86
39075;BME280;24826;52.070;20.970;2023-05-11T00:15:25;62054.91;;;-147.04;37.85
39075;BME280;24826;52.070;20.970;2023-05-11T00:18:10;62088.69;;;-147.04;37.77
39075;BME280;24826;52.070;20.970;2023-05-11T00:20:54;62098.66;;;-147.04;37.88
39075;BME280;24826;52.070;20.970;2023-05-11T00:23:40;62011.13;;;-147.04;37.88
39075;BME280;24826;52.070;20.970;2023-05-11T00:26:25;62082.75;;;-147.04;37.85
39075;BME280;24826;52.070;20.970;2023-05-11T00:29:09;62066.81;;;-147.04;37.81
39075;BME280;24826;52.070;20.970;2023-05-11T00:31:53;62074.78;;;-147.04;37.82
39075;BME280;24826;52.070;20.970;2023-05-11T00:34:38;62060.84;;;-147.04;37.82
39075;BME280;24826;52.070;20.970;2023-05-11T00:37:23;62082.75;;;-147.04;37.82
39075;BME280;24826;52.070;20.970;2023-05-11T00:40:08;62104.63;;;-147.04;37.83
39075;BME280;24826;52.070;20.970;2023-05-11T00:42:52;62084.72;;;-147.04;37.87
39075;BME280;24826;52.070;20.970;2023-05-11T00:45:36;62056.88;;;-147.04;37.79
39075;BME280;24826;52.070;20.970;2023-05-11T00:48:21;62048.94;;;-147.04;37.84
39075;BME280;24826;52.070;20.970;2023-05-11T00:51:06;62096.66;;;-147.04;37.90
39075;BME280;24826;52.070;20.970;2023-05-11T00:53:50;62096.66;;;-147.04;37.83
39075;BME280;24826;52.070;20.970;2023-05-11T00:56:35;62068.81;;;-147.04;37.91
39075;BME280;24826;52.070;20.970;2023-05-11T00:59:19;62104.63;;;-147.04;37.85
39075;BME280;24826;52.070;20.970;2023-05-11T01:02:04;62074.78;;;-147.04;37.90
39075;BME280;24826;52.070;20.970;2023-05-11T01:04:49;62084.72;;;-147.04;37.84
39075;BME280;24826;52.070;20.970;2023-05-11T01:08:04;62076.78;;;-147.04;37.74
39075;BME280;24826;52.070;20.970;2023-05-11T01:11:03;62072.78;;;-147.04;37.79
39075;BME280;24826;52.070;20.970;2023-05-11T01:14:05;62052.91;;;-147.04;37.85
39075;BME280;24826;52.070;20.970;2023-05-11T01:16:54;62052.91;;;-147.04;37.72
39075;BME280;24826;52.070;20.970;2023-05-11T01:19:51;62066.81;;;-147.04;37.79
39075;BME280;24826;52.070;20.970;2023-05-11T01:31:45;62044.94;;;-147.04;37.75
39075;BME280;24826;52.070;20.970;2023-05-11T01:34:34;62068.81;;;-147.04;37.79
39075;BME280;24826;52.070;20.970;2023-05-11T01:37:25;62056.88;;;-147.04;37.84
39075;BME280;24826;52.070;20.970;2023-05-11T01:40:12;62096.66;;;-147.04;37.82
39075;BME280;24826;52.070;20.970;2023-05-11T01:43:04;62068.81;;;-147.04;37.79
39075;BME280;24826;52.070;20.970;2023-05-11T01:45:52;62086.72;;;-147.04;37.72
39075;BME280;24826;52.070;20.970;2023-05-11T01:48:41;62094.66;;;-147.04;37.71
39075;BME280;24826;52.070;20.970;2023-05-11T01:51:32;62076.78;;;-147.04;37.79
39075;BME280;24826;52.070;20.970;2023-05-11T01:54:19;62050.91;;;-147.04;37.79
39075;BME280;24826;52.070;20.970;2023-05-11T01:57:04;62068.81;;;-147.04;37.78
39075;BME280;24826;52.070;20.970;2023-05-11T01:59:51;62072.78;;;-147.04;37.76
39075;BME280;24826;52.070;20.970;2023-05-11T02:02:35;62056.88;;;-147.04;37.75
39075;BME280;24826;52.070;20.970;2023-05-11T02:05:21;62056.88;;;-147.04;37.77
39075;BME280;24826;52.070;20.970;2023-05-11T02:08:07;62048.94;;;-147.04;37.74
39075;BME280;24826;52.070;20.970;2023-05-11T02:10:53;62052.91;;;-147.04;37.71
39075;BME280;24826;52.070;20.970;2023-05-11T02:13:40;62072.78;;;-147.04;37.67
39075;BME280;24826;52.070;20.970;2023-05-11T02:16:26;62038.97;;;-147.04;37.66
39075;BME280;24826;52.070;20.970;2023-05-11T02:19:12;62037.00;;;-147.04;37.65
39075;BME280;24826;52.070;20.970;2023-05-11T02:21:58;62058.88;;;-147.04;37.74
39075;BME280;24826;52.070;20.970;2023-05-11T02:24:43;62056.88;;;-147.04;37.64
39075;BME280;24826;52.070;20.970;2023-05-11T02:27:29;62064.84;;;-147.04;37.66
39075;BME280;24826;52.070;20.970;2023-05-11T02:30:15;62086.72;;;-147.04;37.66
39075;BME280;24826;52.070;20.970;2023-05-11T02:33:04;62098.66;;;-147.04;37.65
39075;BME280;24826;52.070;20.970;2023-05-11T02:35:50;62076.78;;;-147.04;37.64
39075;BME280;24826;52.070;20.970;2023-05-11T02:38:38;62070.81;;;-147.04;37.63
39075;BME280;24826;52.070;20.970;2023-05-11T02:41:26;62044.94;;;-147.04;37.70
39075;BME280;24826;52.070;20.970;2023-05-11T02:44:14;62088.69;;;-147.04;37.68
39075;BME280;24826;52.070;20.970;2023-05-11T02:47:02;62056.88;;;-147.04;37.66
39075;BME280;24826;52.070;20.970;2023-05-11T02:49:49;62066.81;;;-147.04;37.64
39075;BME280;24826;52.070;20.970;2023-05-11T02:52:40;62060.84;;;-147.04;37.66
39075;BME280;24826;52.070;20.970;2023-05-11T02:55:26;62048.94;;;-147.04;37.50
39075;BME280;24826;52.070;20.970;2023-05-11T02:58:12;62096.66;;;-147.04;37.67
39075;BME280;24826;52.070;20.970;2023-05-11T03:00:57;62092.69;;;-147.04;37.61
39075;BME280;24826;52.070;20.970;2023-05-11T03:03:42;62068.81;;;-147.04;37.50
39075;BME280;24826;52.070;20.970;2023-05-11T03:06:26;62033.00;;;-147.04;37.77
39075;BME280;24826;52.070;20.970;2023-05-11T03:09:10;62025.06;;;-147.04;37.55
39075;BME280;24826;52.070;20.970;2023-05-11T03:11:56;62029.03;;;-147.04;37.57
39075;BME280;24826;52.070;20.970;2023-05-11T03:14:41;62072.78;;;-147.04;37.63
39075;BME280;24826;52.070;20.970;2023-05-11T03:17:27;62044.94;;;-147.04;37.62
39075;BME280;24826;52.070;20.970;2023-05-11T03:20:12;62066.81;;;-147.04;37.53
39075;BME280;24826;52.070;20.970;2023-05-11T03:22:59;62056.88;;;-147.04;37.69
39075;BME280;24826;52.070;20.970;2023-05-11T03:25:44;62029.03;;;-147.04;37.61
39075;BME280;24826;52.070;20.970;2023-05-11T03:28:30;62044.94;;;-147.04;37.56
39075;BME280;24826;52.070;20.970;2023-05-11T03:31:17;62052.91;;;-147.04;37.66
39075;BME280;24826;52.070;20.970;2023-05-11T03:34:01;62040.97;;;-147.04;37.57
39075;BME280;24826;52.070;20.970;2023-05-11T03:36:49;62078.75;;;-147.04;37.60
39075;BME280;24826;52.070;20.970;2023-05-11T03:39:35;62060.84;;;-147.04;37.67
39075;BME280;24826;52.070;20.970;2023-05-11T03:42:20;62025.06;;;-147.04;37.61
39075;BME280;24826;52.070;20.970;2023-05-11T03:45:06;62025.06;;;-147.04;37.55
39075;BME280;24826;52.070;20.970;2023-05-11T03:47:52;61997.22;;;-147.04;37.69
39075;BME280;24826;52.070;20.970;2023-05-11T03:50:39;62072.78;;;-147.04;37.61
39075;BME280;24826;52.070;20.970;2023-05-11T03:53:24;62054.91;;;-147.04;37.52
39075;BME280;24826;52.070;20.970;2023-05-11T03:56:08;62048.94;;;-147.04;37.62
39075;BME280;24826;52.070;20.970;2023-05-11T03:58:52;62200.06;;;-147.04;37.57
39075;BME280;24826;52.070;20.970;2023-05-11T04:01:37;62040.97;;;-147.04;37.55
39075;BME280;24826;52.070;20.970;2023-05-11T04:04:27;62015.13;;;-147.04;37.69
39075;BME280;24826;52.070;20.970;2023-05-11T04:07:15;62060.84;;;-147.04;37.60
39075;BME280;24826;52.070;20.970;2023-05-11T04:09:59;62054.91;;;-147.04;37.54
39075;BME280;24826;52.070;20.970;2023-05-11T04:12:44;62054.91;;;-147.04;37.52
39075;BME280;24826;52.070;20.970;2023-05-11T04:15:28;62033.00;;;-147.04;37.63
39075;BME280;24826;52.070;20.970;2023-05-11T04:18:13;62050.91;;;-147.04;37.85
39075;BME280;24826;52.070;20.970;2023-05-11T04:20:57;62072.78;;;-147.04;37.95
39075;BME280;24826;52.070;20.970;2023-05-11T04:23:42;62066.81;;;-147.04;38.05
39075;BME280;24826;52.070;20.970;2023-05-11T04:26:26;62031.03;;;-147.04;38.33
39075;BME280;24826;52.070;20.970;2023-05-11T04:29:10;62029.03;;;-147.04;38.58
39075;BME280;24826;52.070;20.970;2023-05-11T04:31:55;62040.97;;;-147.04;38.41
39075;BME280;24826;52.070;20.970;2023-05-11T04:34:39;62062.84;;;-147.04;38.30
39075;BME280;24826;52.070;20.970;2023-05-11T04:37:24;62066.81;;;-147.04;38.49
39075;BME280;24826;52.070;20.970;2023-05-11T04:40:08;62038.97;;;-147.04;38.21
39075;BME280;24826;52.070;20.970;2023-05-11T04:42:53;62068.81;;;-147.04;38.46
39075;BME280;24826;52.070;20.970;2023-05-11T04:45:37;62054.91;;;-147.04;38.40
39075;BME280;24826;52.070;20.970;2023-05-11T04:48:21;62060.84;;;-147.04;38.57
39075;BME280;24826;52.070;20.970;2023-05-11T04:51:06;62046.94;;;-147.04;38.64
39075;BME280;24826;52.070;20.970;2023-05-11T04:53:51;62058.88;;;-147.04;38.70
39075;BME280;24826;52.070;20.970;2023-05-11T04:56:35;62052.91;;;-147.04;38.48
39075;BME280;24826;52.070;20.970;2023-05-11T04:59:23;62029.03;;;-147.04;38.59
39075;BME280;24826;52.070;20.970;2023-05-11T05:02:08;62068.81;;;-147.04;38.86
39075;BME280;24826;52.070;20.970;2023-05-11T05:04:52;62050.91;;;-147.04;38.87
39075;BME280;24826;52.070;20.970;2023-05-11T05:07:37;62048.94;;;-147.04;38.91
39075;BME280;24826;52.070;20.970;2023-05-11T05:10:21;62092.69;;;-147.04;38.61
39075;BME280;24826;52.070;20.970;2023-05-11T05:13:06;62080.75;;;-147.04;38.81
39075;BME280;24826;52.070;20.970;2023-05-11T05:15:50;62037.00;;;-147.04;38.59
39075;BME280;24826;52.070;20.970;2023-05-11T05:18:34;62023.06;;;-147.04;38.76
39075;BME280;24826;52.070;20.970;2023-05-11T05:21:19;62064.84;;;-147.04;38.90
39075;BME280;24826;52.070;20.970;2023-05-11T05:24:04;62086.72;;;-147.04;38.92
39075;BME280;24826;52.070;20.970;2023-05-11T05:26:49;62062.84;;;-147.04;38.73
39075;BME280;24826;52.070;20.970;2023-05-11T05:29:34;62042.97;;;-147.04;38.88
39075;BME280;24826;52.070;20.970;2023-05-11T05:32:18;62070.81;;;-147.04;38.81
39075;BME280;24826;52.070;20.970;2023-05-11T05:35:02;62064.84;;;-147.04;38.87
39075;BME280;24826;52.070;20.970;2023-05-11T05:37:47;62076.78;;;-147.04;38.67
39075;BME280;24826;52.070;20.970;2023-05-11T05:40:32;62068.81;;;-147.04;38.84
39075;BME280;24826;52.070;20.970;2023-05-11T05:43:20;62031.03;;;-147.04;38.86
39075;BME280;24826;52.070;20.970;2023-05-11T05:46:04;62076.78;;;-147.04;38.99
39075;BME280;24826;52.070;20.970;2023-05-11T05:48:49;62074.78;;;-147.04;38.97
39075;BME280;24826;52.070;20.970;2023-05-11T05:51:33;62080.75;;;-147.04;38.97
39075;BME280;24826;52.070;20.970;2023-05-11T05:54:17;62076.78;;;-147.04;38.95
39075;BME280;24826;52.070;20.970;2023-05-11T05:57:02;62068.81;;;-147.04;38.99
39075;BME280;24826;52.070;20.970;2023-05-11T05:59:46;62078.75;;;-147.04;38.93
39075;BME280;24826;52.070;20.970;2023-05-11T06:02:31;62056.88;;;-147.04;38.92
39075;BME280;24826;52.070;20.970;2023-05-11T06:05:15;62074.78;;;-147.04;38.80
39075;BME280;24826;52.070;20.970;2023-05-11T06:08:00;62080.75;;;-147.04;38.86
39075;BME280;24826;52.070;20.970;2023-05-11T06:10:44;62062.84;;;-147.04;38.66
39075;BME280;24826;52.070;20.970;2023-05-11T06:13:29;62074.78;;;-147.04;38.92
39075;BME280;24826;52.070;20.970;2023-05-11T06:16:13;62102.63;;;-147.04;38.57
39075;BME280;24826;52.070;20.970;2023-05-11T06:18:58;62068.81;;;-147.04;38.86
39075;BME280;24826;52.070;20.970;2023-05-11T06:21:42;62074.78;;;-147.04;38.86
39075;BME280;24826;52.070;20.970;2023-05-11T06:24:28;62060.84;;;-147.04;38.83
39075;BME280;24826;52.070;20.970;2023-05-11T06:27:12;62084.72;;;-147.04;38.98
39075;BME280;24826;52.070;20.970;2023-05-11T06:29:56;62088.69;;;-147.04;38.96
39075;BME280;24826;52.070;20.970;2023-05-11T06:32:40;62072.78;;;-147.04;38.94
39075;BME280;24826;52.070;20.970;2023-05-11T06:35:25;62084.72;;;-147.04;38.97
39075;BME280;24826;52.070;20.970;2023-05-11T06:38:10;62108.59;;;-147.04;38.90
39075;BME280;24826;52.070;20.970;2023-05-11T06:40:54;62106.59;;;-147.04;38.99
39075;BME280;24826;52.070;20.970;2023-05-11T06:43:39;62096.66;;;-147.04;38.95
39075;BME280;24826;52.070;20.970;2023-05-11T06:46:24;62112.56;;;-147.04;39.08
39075;BME280;24826;52.070;20.970;2023-05-11T06:49:08;62064.84;;;-147.04;38.98
39075;BME280;24826;52.070;20.970;2023-05-11T06:51:53;62068.81;;;-147.04;39.04
39075;BME280;24826;52.070;20.970;2023-05-11T06:54:37;62082.75;;;-147.04;39.16
39075;BME280;24826;52.070;20.970;2023-05-11T06:57:21;62100.63;;;-147.04;39.45
39075;BME280;24826;52.070;20.970;2023-05-11T07:00:06;62092.69;;;-147.04;39.10
39075;BME280;24826;52.070;20.970;2023-05-11T07:02:50;62106.59;;;-147.04;39.13
39075;BME280;24826;52.070;20.970;2023-05-11T07:05:35;62118.53;;;-147.04;39.19
39075;BME280;24826;52.070;20.970;2023-05-11T07:08:20;62106.59;;;-147.04;39.17
39075;BME280;24826;52.070;20.970;2023-05-11T07:11:04;62100.63;;;-147.04;39.35
39075;BME280;24826;52.070;20.970;2023-05-11T07:13:49;62116.53;;;-147.04;39.29
39075;BME280;24826;52.070;20.970;2023-05-11T07:16:33;62126.50;;;-147.04;39.29
39075;BME280;24826;52.070;20.970;2023-05-11T07:19:21;62130.47;;;-147.04;39.37
39075;BME280;24826;52.070;20.970;2023-05-11T07:22:05;62134.44;;;-147.04;39.41
39075;BME280;24826;52.070;20.970;2023-05-11T07:24:50;62106.59;;;-147.04;39.37
39075;BME280;24826;52.070;20.970;2023-05-11T07:27:34;62120.53;;;-147.04;39.47
39075;BME280;24826;52.070;20.970;2023-05-11T07:30:18;62120.53;;;-147.04;39.46
39075;BME280;24826;52.070;20.970;2023-05-11T07:33:03;62116.53;;;-147.04;39.55
39075;BME280;24826;52.070;20.970;2023-05-11T07:35:47;62144.38;;;-147.04;39.50
39075;BME280;24826;52.070;20.970;2023-05-11T07:38:32;62136.44;;;-147.04;39.54
39075;BME280;24826;52.070;20.970;2023-05-11T07:41:16;62245.81;;;-147.04;39.55
39075;BME280;24826;52.070;20.970;2023-05-11T07:44:01;62150.34;;;-147.04;39.45
39075;BME280;24826;52.070;20.970;2023-05-11T07:46:46;62144.38;;;-147.04;39.55
39075;BME280;24826;52.070;20.970;2023-05-11T07:49:30;62116.53;;;-147.04;39.41
39075;BME280;24826;52.070;20.970;2023-05-11T07:52:15;62144.38;;;-147.04;39.59
39075;BME280;24826;52.070;20.970;2023-05-11T07:55:00;62138.41;;;-147.04;39.69
39075;BME280;24826;52.070;20.970;2023-05-11T07:57:44;62120.53;;;-147.04;39.63
39075;BME280;24826;52.070;20.970;2023-05-11T08:00:29;62132.47;;;-147.04;39.60
39075;BME280;24826;52.070;20.970;2023-05-11T08:03:13;62114.56;;;-147.04;39.80
39075;BME280;24826;52.070;20.970;2023-05-11T08:05:58;62130.47;;;-147.04;39.74
39075;BME280;24826;52.070;20.970;2023-05-11T08:08:42;62124.50;;;-147.04;39.74
39075;BME280;24826;52.070;20.970;2023-05-11T08:11:26;62120.53;;;-147.04;39.80
39075;BME280;24826;52.070;20.970;2023-05-11T08:14:11;62116.53;;;-147.04;39.87
39075;BME280;24826;52.070;20.970;2023-05-11T08:16:56;62134.44;;;-147.04;39.80
39075;BME280;24826;52.070;20.970;2023-05-11T08:19:51;62158.31;;;-147.04;39.87
39075;BME280;24826;52.070;20.970;2023-05-11T08:22:36;62114.56;;;-147.04;39.56
39075;BME280;24826;52.070;20.970;2023-05-11T08:25:20;62116.53;;;-147.04;40.00
39075;BME280;24826;52.070;20.970;2023-05-11T08:28:05;62128.47;;;-147.04;39.89
39075;BME280;24826;52.070;20.970;2023-05-11T08:30:56;62142.41;;;-147.04;39.92
39075;BME280;24826;52.070;20.970;2023-05-11T08:33:41;62120.53;;;-147.04;40.01
39075;BME280;24826;52.070;20.970;2023-05-11T08:36:25;62132.47;;;-147.04;39.81
39075;BME280;24826;52.070;20.970;2023-05-11T08:39:10;62176.22;;;-147.04;39.88
39075;BME280;24826;52.070;20.970;2023-05-11T08:41:57;62132.47;;;-147.04;39.92
39075;BME280;24826;52.070;20.970;2023-05-11T08:44:43;62146.38;;;-147.04;39.78
39075;BME280;24826;52.070;20.970;2023-05-11T08:47:28;62128.47;;;-147.04;40.07
39075;BME280;24826;52.070;20.970;2023-05-11T08:50:12;62118.53;;;-147.04;39.78
39075;BME280;24826;52.070;20.970;2023-05-11T08:52:57;62148.38;;;-147.04;39.72
39075;BME280;24826;52.070;20.970;2023-05-11T08:55:42;62140.41;;;-147.04;39.79
39075;BME280;24826;52.070;20.970;2023-05-11T08:58:28;62116.53;;;-147.04;39.77
39075;BME280;24826;52.070;20.970;2023-05-11T09:01:14;62132.47;;;-147.04;39.73
39075;BME280;24826;52.070;20.970;2023-05-11T09:04:01;62092.69;;;-147.04;39.82
39075;BME280;24826;52.070;20.970;2023-05-11T09:06:48;62168.25;;;-147.04;39.74
39075;BME280;24826;52.070;20.970;2023-05-11T09:09:33;62152.34;;;-147.04;39.71
39075;BME280;24826;52.070;20.970;2023-05-11T09:12:18;62134.44;;;-147.04;39.79
39075;BME280;24826;52.070;20.970;2023-05-11T09:15:03;62156.31;;;-147.04;39.82
39075;BME280;24826;52.070;20.970;2023-05-11T09:17:48;62120.53;;;-147.04;39.77
39075;BME280;24826;52.070;20.970;2023-05-11T09:20:33;62152.34;;;-147.04;39.76
39075;BME280;24826;52.070;20.970;2023-05-11T09:23:23;62148.38;;;-147.04;39.74
39075;BME280;24826;52.070;20.970;2023-05-11T09:26:34;62170.25;;;-147.04;39.73
39075;BME280;24826;52.070;20.970;2023-05-11T09:29:19;62138.41;;;-147.04;39.79
39075;BME280;24826;52.070;20.970;2023-05-11T09:32:05;62146.38;;;-147.04;39.74
39075;BME280;24826;52.070;20.970;2023-05-11T09:34:49;62110.56;;;-147.04;39.75
39075;BME280;24826;52.070;20.970;2023-05-11T09:37:35;62170.25;;;-147.04;39.63
39075;BME280;24826;52.070;20.970;2023-05-11T09:40:19;62122.50;;;-147.04;39.66
39075;BME280;24826;52.070;20.970;2023-05-11T09:46:03;62142.41;;;-147.04;39.66
39075;BME280;24826;52.070;20.970;2023-05-11T09:48:57;62164.28;;;-147.04;39.64
39075;BME280;24826;52.070;20.970;2023-05-11T09:51:43;62158.31;;;-147.04;39.66
39075;BME280;24826;52.070;20.970;2023-05-11T09:54:27;62144.38;;;-147.04;39.74
39075;BME280;24826;52.070;20.970;2023-05-11T10:00:12;62156.31;;;-147.04;39.58
39075;BME280;24826;52.070;20.970;2023-05-11T10:03:06;62170.25;;;-147.04;39.74
39075;BME280;24826;52.070;20.970;2023-05-11T10:05:59;62148.38;;;-147.04;39.67
39075;BME280;24826;52.070;20.970;2023-05-11T10:08:44;62144.38;;;-147.04;39.46
39075;BME280;24826;52.070;20.970;2023-05-11T10:11:29;62128.47;;;-147.04;39.45
39075;BME280;24826;52.070;20.970;2023-05-11T10:14:14;62152.34;;;-147.04;39.55
39075;BME280;24826;52.070;20.970;2023-05-11T10:16:59;62140.41;;;-147.04;39.55
39075;BME280;24826;52.070;20.970;2023-05-11T10:19:48;62186.16;;;-147.04;39.58
39075;BME280;24826;52.070;20.970;2023-05-11T10:22:33;62198.09;;;-147.04;39.66
39075;BME280;24826;52.070;20.970;2023-05-11T10:25:24;62140.41;;;-147.04;39.66
39075;BME280;24826;52.070;20.970;2023-05-11T10:28:09;62158.31;;;-147.04;39.58
39075;BME280;24826;52.070;20.970;2023-05-11T10:30:53;62156.31;;;-147.04;39.40
39075;BME280;24826;52.070;20.970;2023-05-11T10:33:39;62164.28;;;-147.04;39.54
39075;BME280;24826;52.070;20.970;2023-05-11T10:36:25;62140.41;;;-147.04;39.42
39075;BME280;24826;52.070;20.970;2023-05-11T10:39:10;62170.25;;;-147.04;39.42
39075;BME280;24826;52.070;20.970;2023-05-11T10:42:15;62180.19;;;-147.04;39.46
39075;BME280;24826;52.070;20.970;2023-05-11T10:45:30;62152.34;;;-147.04;39.53
39075;BME280;24826;52.070;20.970;2023-05-11T10:51:47;62176.22;;;-147.04;39.44
39075;BME280;24826;52.070;20.970;2023-05-11T10:54:47;62166.25;;;-147.04;39.50
39075;BME280;24826;52.070;20.970;2023-05-11T10:57:47;62144.38;;;-147.04;39.53
39075;BME280;24826;52.070;20.970;2023-05-11T11:01:08;62166.25;;;-147.04;39.41
39075;BME280;24826;52.070;20.970;2023-05-11T11:04:04;62176.22;;;-147.04;39.56
39075;BME280;24826;52.070;20.970;2023-05-11T11:07:03;62150.34;;;-147.04;39.49
39075;BME280;24826;52.070;20.970;2023-05-11T11:09:52;62156.31;;;-147.04;39.47
39075;BME280;24826;52.070;20.970;2023-05-11T11:12:37;62168.25;;;-147.04;39.58
39075;BME280;24826;52.070;20.970;2023-05-11T11:15:21;62170.25;;;-147.04;39.65
39075;BME280;24826;52.070;20.970;2023-05-11T11:18:21;62194.09;;;-147.04;39.58
39075;BME280;24826;52.070;20.970;2023-05-11T11:21:06;62160.31;;;-147.04;39.53
39075;BME280;24826;52.070;20.970;2023-05-11T11:23:52;62138.41;;;-147.04;39.57
39075;BME280;24826;52.070;20.970;2023-05-11T11:26:48;62188.13;;;-147.04;39.58
39075;BME280;24826;52.070;20.970;2023-05-11T11:29:34;62142.41;;;-147.04;39.61
39075;BME280;24826;52.070;20.970;2023-05-11T11:38:23;62214.00;;;-147.04;39.59
39075;BME280;24826;52.070;20.970;2023-05-11T11:41:08;62200.06;;;-147.04;39.63
39075;BME280;24826;52.070;20.970;2023-05-11T11:43:52;62200.06;;;-147.04;39.61
39075;BME280;24826;52.070;20.970;2023-05-11T11:46:38;62176.22;;;-147.04;39.66
39075;BME280;24826;52.070;20.970;2023-05-11T11:49:26;62188.13;;;-147.04;39.63
39075;BME280;24826;52.070;20.970;2023-05-11T11:52:31;62148.38;;;-147.04;39.57
39075;BME280;24826;52.070;20.970;2023-05-11T11:55:45;62170.25;;;-147.04;39.60
39075;BME280;24826;52.070;20.970;2023-05-11T12:01:33;62182.19;;;-147.04;39.55
39075;BME280;24826;52.070;20.970;2023-05-11T12:04:59;62152.34;;;-147.04;39.53
39075;BME280;24826;52.070;20.970;2023-05-11T12:07:47;62198.09;;;-147.04;39.62
39075;BME280;24826;52.070;20.970;2023-05-11T12:10:31;62212.00;;;-147.04;39.56
39075;BME280;24826;52.070;20.970;2023-05-11T12:13:18;62219.97;;;-147.04;39.50
39075;BME280;24826;52.070;20.970;2023-05-11T12:16:08;62204.06;;;-147.04;39.64
39075;BME280;24826;52.070;20.970;2023-05-11T12:18:55;62200.06;;;-147.04;39.61
39075;BME280;24826;52.070;20.970;2023-05-11T12:21:43;62194.09;;;-147.04;39.56
39075;BME280;24826;52.070;20.970;2023-05-11T12:24:28;62190.13;;;-147.04;39.71
39075;BME280;24826;52.070;20.970;2023-05-11T12:27:16;62156.31;;;-147.04;39.63
39075;BME280;24826;52.070;20.970;2023-05-11T12:30:00;62164.28;;;-147.04;39.59
39075;BME280;24826;52.070;20.970;2023-05-11T12:32:44;62208.03;;;-147.04;39.65
39075;BME280;24826;52.070;20.970;2023-05-11T12:35:31;62176.22;;;-147.04;39.54
39075;BME280;24826;52.070;20.970;2023-05-11T12:38:17;62190.13;;;-147.04;39.53
39075;BME280;24826;52.070;20.970;2023-05-11T12:41:01;62186.16;;;-147.04;39.43
39075;BME280;24826;52.070;20.970;2023-05-11T12:43:51;62164.28;;;-147.04;39.47
39075;BME280;24826;52.070;20.970;2023-05-11T12:46:36;62176.22;;;-147.04;39.57
39075;BME280;24826;52.070;20.970;2023-05-11T12:49:24;62196.09;;;-147.04;39.60
39075;BME280;24826;52.070;20.970;2023-05-11T12:52:12;62140.41;;;-147.04;39.53
39075;BME280;24826;52.070;20.970;2023-05-11T12:54:56;62156.31;;;-147.04;39.51
39075;BME280;24826;52.070;20.970;2023-05-11T12:57:44;62186.16;;;-147.04;39.50
39075;BME280;24826;52.070;20.970;2023-05-11T13:00:28;62166.25;;;-147.04;39.39
39075;BME280;24826;52.070;20.970;2023-05-11T13:03:20;62152.34;;;-147.04;39.35
39075;BME280;24826;52.070;20.970;2023-05-11T13:06:08;62202.06;;;-147.04;39.39
39075;BME280;24826;52.070;20.970;2023-05-11T13:08:52;62136.44;;;-147.04;39.50
39075;BME280;24826;52.070;20.970;2023-05-11T13:11:37;62160.31;;;-147.04;39.48
39075;BME280;24826;52.070;20.970;2023-05-11T13:14:22;62166.25;;;-147.04;39.54
39075;BME280;24826;52.070;20.970;2023-05-11T13:17:06;62154.34;;;-147.04;39.50
39075;BME280;24826;52.070;20.970;2023-05-11T13:19:50;62168.25;;;-147.04;39.56
39075;BME280;24826;52.070;20.970;2023-05-11T13:22:34;62186.16;;;-147.04;39.58
39075;BME280;24826;52.070;20.970;2023-05-11T13:25:19;62160.31;;;-147.04;39.51
39075;BME280;24826;52.070;20.970;2023-05-11T13:28:04;62180.19;;;-147.04;39.61
39075;BME280;24826;52.070;20.970;2023-05-11T13:30:50;62168.25;;;-147.04;39.58
39075;BME280;24826;52.070;20.970;2023-05-11T13:33:35;62192.13;;;-147.04;39.50
39075;BME280;24826;52.070;20.970;2023-05-11T13:36:19;62164.28;;;-147.04;39.43
39075;BME280;24826;52.070;20.970;2023-05-11T13:39:04;62315.44;;;-147.04;39.48
39075;BME280;24826;52.070;20.970;2023-05-11T13:41:48;62221.94;;;-147.04;39.46
39075;BME280;24826;52.070;20.970;2023-05-11T13:44:33;62184.16;;;-147.04;39.53
39075;BME280;24826;52.070;20.970;2023-05-11T13:47:17;62194.09;;;-147.04;39.47
39075;BME280;24826;52.070;20.970;2023-05-11T13:50:02;62188.13;;;-147.04;39.63
39075;BME280;24826;52.070;20.970;2023-05-11T13:52:47;62204.06;;;-147.04;39.57
39075;BME280;24826;52.070;20.970;2023-05-11T13:55:31;62194.09;;;-147.04;39.54
39075;BME280;24826;52.070;20.970;2023-05-11T13:58:16;62162.28;;;-147.04;39.61
39075;BME280;24826;52.070;20.970;2023-05-11T14:01:00;62164.28;;;-147.04;39.55
39075;BME280;24826;52.070;20.970;2023-05-11T14:03:50;62186.16;;;-147.04;39.50
39075;BME280;24826;52.070;20.970;2023-05-11T14:06:35;62144.38;;;-147.04;39.69
39075;BME280;24826;52.070;20.970;2023-05-11T14:09:21;62184.16;;;-147.04;39.65
39075;BME280;24826;52.070;20.970;2023-05-11T14:12:07;62184.16;;;-147.04;39.07
39075;BME280;24826;52.070;20.970;2023-05-11T14:14:51;62176.22;;;-147.04;38.90
39075;BME280;24826;52.070;20.970;2023-05-11T14:17:35;62138.41;;;-147.04;39.50
39075;BME280;24826;52.070;20.970;2023-05-11T14:20:20;62148.38;;;-147.04;39.30
39075;BME280;24826;52.070;20.970;2023-05-11T14:23:04;62204.06;;;-147.04;39.43
39075;BME280;24826;52.070;20.970;2023-05-11T14:25:48;62186.16;;;-147.04;39.27
39075;BME280;24826;52.070;20.970;2023-05-11T14:28:33;62156.31;;;-147.04;39.25
39075;BME280;24826;52.070;20.970;2023-05-11T14:31:18;62170.25;;;-147.04;39.27
39075;BME280;24826;52.070;20.970;2023-05-11T14:34:03;62192.13;;;-147.04;39.38
39075;BME280;24826;52.070;20.970;2023-05-11T14:36:47;62156.31;;;-147.04;39.11